createdAt,value
2023-06-11T00:00:26.385Z,25.00
2023-06-11T00:01:26.399Z,25.00
2023-06-11T00:02:26.499Z,0.00
2023-06-11T00:03:26.717Z,0.00
2023-06-11T00:04:26.890Z,0.00
2023-06-11T00:05:26.511Z,0.00
2023-06-11T00:06:26.604Z,0.00
2023-06-11T00:07:26.576Z,0.00
2023-06-11T00:08:26.607Z,0.00
2023-06-11T00:09:26.655Z,0.00
2023-06-11T00:10:26.684Z,7.13
2023-06-11T00:11:26.708Z,26.24
2023-06-11T00:12:26.768Z,24.27
2023-06-11T00:13:26.776Z,26.48
2023-06-11T00:14:26.813Z,25.99
2023-06-11T00:15:26.850Z,25.00
2023-06-11T00:16:26.953Z,25.00
2023-06-11T00:17:26.922Z,24.53
2023-06-11T00:18:26.963Z,25.00
2023-06-11T00:19:26.990Z,26.69
2023-06-11T00:20:27.037Z,27.47
2023-06-11T00:21:27.079Z,25.27
2023-06-11T00:22:27.110Z,25.20
2023-06-11T00:23:27.155Z,28.18
2023-06-11T00:24:27.231Z,26.98
2023-06-11T00:25:27.235Z,26.98
2023-06-11T00:26:27.257Z,26.65
2023-06-11T00:27:27.304Z,27.24
2023-06-11T00:28:27.362Z,25.02
2023-06-11T00:29:27.381Z,27.08
2023-06-11T00:30:27.428Z,29.56
2023-06-11T00:31:27.480Z,27.32
2023-06-11T00:32:27.533Z,25.00
2023-06-11T00:33:27.525Z,26.82
2023-06-11T00:34:27.556Z,26.41
2023-06-11T00:35:27.586Z,26.87
2023-06-11T00:36:27.622Z,26.12
2023-06-11T00:37:27.655Z,27.16
2023-06-11T00:38:27.704Z,27.29
2023-06-11T00:39:27.737Z,27.92
2023-06-11T00:40:27.765Z,27.27
2023-06-11T00:41:27.798Z,26.19
2023-06-11T00:42:27.827Z,27.24
2023-06-11T00:43:27.858Z,26.65
2023-06-11T00:44:27.938Z,26.70
2023-06-11T00:45:27.965Z,25.11
2023-06-11T00:46:28.262Z,25.53
2023-06-11T00:47:28.089Z,27.27
2023-06-11T00:48:28.051Z,25.95
2023-06-11T00:49:28.090Z,29.18
2023-06-11T00:50:28.133Z,25.98
2023-06-11T00:51:28.177Z,28.47
2023-06-11T00:52:28.198Z,28.94
2023-06-11T00:53:28.229Z,27.18
2023-06-11T00:54:28.278Z,26.30
2023-06-11T00:55:28.307Z,25.48
2023-06-11T00:56:28.374Z,26.50
2023-06-11T00:57:28.394Z,26.50
2023-06-11T00:58:28.542Z,27.33
2023-06-11T00:59:28.471Z,28.24
2023-06-11T01:00:28.520Z,26.64
2023-06-11T01:01:28.633Z,30.15
2023-06-11T01:02:28.600Z,29.86
2023-06-11T01:03:29.039Z,31.73
2023-06-11T01:04:28.725Z,30.08
2023-06-11T01:05:28.849Z,29.65
2023-06-11T01:06:28.731Z,28.36
2023-06-11T01:07:28.776Z,26.75
2023-06-11T01:08:28.813Z,28.02
2023-06-11T01:09:28.859Z,26.30
2023-06-11T01:10:28.890Z,28.10
2023-06-11T01:11:28.925Z,26.93
2023-06-11T01:12:28.967Z,26.96
2023-06-11T01:13:29.018Z,30.62
2023-06-11T01:14:29.048Z,30.58
2023-06-11T01:15:29.087Z,27.81
2023-06-11T01:16:29.174Z,27.08
2023-06-11T01:17:29.193Z,28.78
2023-06-11T01:18:29.209Z,27.93
2023-06-11T01:19:29.238Z,26.54
2023-06-11T01:20:29.277Z,25.21
2023-06-11T01:21:29.317Z,29.07
2023-06-11T01:22:29.370Z,26.18
2023-06-11T01:23:29.401Z,25.50
2023-06-11T01:24:29.434Z,25.61
2023-06-11T01:25:29.487Z,28.75
2023-06-11T01:26:29.570Z,27.31
2023-06-11T01:27:29.551Z,29.34
2023-06-11T01:28:29.605Z,29.05
2023-06-11T01:29:29.637Z,28.07
2023-06-11T01:30:29.672Z,27.47
2023-06-11T01:31:29.813Z,28.15
2023-06-11T01:32:29.783Z,26.90
2023-06-11T01:33:29.799Z,28.90
2023-06-11T01:34:29.822Z,29.98
2023-06-11T01:35:29.881Z,25.64
2023-06-11T01:36:29.907Z,25.80
2023-06-11T01:37:29.940Z,29.22
2023-06-11T01:38:29.978Z,26.44
2023-06-11T01:39:30.035Z,29.74
2023-06-11T01:40:30.066Z,27.58
2023-06-11T01:41:30.124Z,28.97
2023-06-11T01:42:30.144Z,27.62
2023-06-11T01:43:30.191Z,30.48
2023-06-11T01:44:30.224Z,30.48
2023-06-11T01:45:30.272Z,29.21
2023-06-11T01:46:30.337Z,28.35
2023-06-11T01:47:30.382Z,27.84
2023-06-11T01:48:30.435Z,30.18
2023-06-11T01:49:30.442Z,27.96
2023-06-11T01:50:30.488Z,28.43
2023-06-11T01:51:30.531Z,26.24
2023-06-11T01:52:30.579Z,29.46
2023-06-11T01:53:30.624Z,30.71
2023-06-11T01:54:30.666Z,29.20
2023-06-11T01:55:30.721Z,28.97
2023-06-11T01:56:30.758Z,30.65
2023-06-11T01:57:30.807Z,32.76
2023-06-11T01:58:30.853Z,26.17
2023-06-11T01:59:30.927Z,27.25
2023-06-11T02:00:30.940Z,28.11
2023-06-11T02:01:31.085Z,27.91
2023-06-11T02:02:31.073Z,27.22
2023-06-11T02:03:31.167Z,28.65
2023-06-11T02:04:31.146Z,26.75
2023-06-11T02:05:31.173Z,25.00
2023-06-11T02:06:31.214Z,27.48
2023-06-11T02:07:31.252Z,30.50
2023-06-11T02:08:31.292Z,29.88
2023-06-11T02:09:31.341Z,30.31
2023-06-11T02:10:31.388Z,29.73
2023-06-11T02:11:31.435Z,30.39
2023-06-11T02:12:31.479Z,29.63
2023-06-11T02:13:31.532Z,30.18
2023-06-11T02:14:31.585Z,29.33
2023-06-11T02:15:31.607Z,27.71
2023-06-11T02:16:31.694Z,29.38
2023-06-11T02:17:31.710Z,26.41
2023-06-11T02:18:31.750Z,30.01
2023-06-11T02:19:31.798Z,28.15
2023-06-11T02:20:31.880Z,27.38
2023-06-11T02:21:31.897Z,26.71
2023-06-11T02:22:31.935Z,29.79
2023-06-11T02:23:31.974Z,29.16
2023-06-11T02:24:32.018Z,28.51
2023-06-11T02:25:32.063Z,26.05
2023-06-11T02:26:32.107Z,27.89
2023-06-11T02:27:32.161Z,29.50
2023-06-11T02:28:32.197Z,27.15
2023-06-11T02:29:32.274Z,25.17
2023-06-11T02:30:32.289Z,28.02
2023-06-11T02:31:32.356Z,28.25
2023-06-11T02:32:32.418Z,27.36
2023-06-11T02:33:32.426Z,28.45
2023-06-11T02:34:32.501Z,29.90
2023-06-11T02:35:32.519Z,27.24
2023-06-11T02:36:32.600Z,28.05
2023-06-11T02:37:32.614Z,29.39
2023-06-11T02:38:32.672Z,27.47
2023-06-11T02:39:32.698Z,27.39
2023-06-11T02:40:32.752Z,27.70
2023-06-11T02:41:32.790Z,28.22
2023-06-11T02:42:32.839Z,28.21
2023-06-11T02:43:32.885Z,28.36
2023-06-11T02:44:32.926Z,31.08
2023-06-11T02:45:32.969Z,27.26
2023-06-11T02:46:33.114Z,30.50
2023-06-11T02:47:33.137Z,29.55
2023-06-11T02:48:33.102Z,25.62
2023-06-11T02:49:33.154Z,28.39
2023-06-11T02:50:33.199Z,28.05
2023-06-11T02:51:33.250Z,27.87
2023-06-11T02:52:33.342Z,29.36
2023-06-11T02:53:33.336Z,30.36
2023-06-11T02:54:33.407Z,27.22
2023-06-11T02:55:33.432Z,28.46
2023-06-11T02:56:33.475Z,27.80
2023-06-11T02:57:33.551Z,28.18
2023-06-11T02:58:33.568Z,28.05
2023-06-11T02:59:33.617Z,28.08
2023-06-11T03:00:33.663Z,26.88
2023-06-11T03:01:33.739Z,28.79
2023-06-11T03:02:33.789Z,29.84
2023-06-11T03:03:33.895Z,29.10
2023-06-11T03:04:33.840Z,27.20
2023-06-11T03:05:33.890Z,29.12
2023-06-11T03:06:33.924Z,27.94
2023-06-11T03:07:33.979Z,28.45
2023-06-11T03:08:34.038Z,29.97
2023-06-11T03:09:34.059Z,30.63
2023-06-11T03:10:34.103Z,28.67
2023-06-11T03:11:34.208Z,30.05
2023-06-11T03:12:34.193Z,29.19
2023-06-11T03:13:34.240Z,26.18
2023-06-11T03:14:34.289Z,28.64
2023-06-11T03:15:34.350Z,29.39
2023-06-11T03:16:34.570Z,31.76
2023-06-11T03:17:34.497Z,30.11
2023-06-11T03:18:34.473Z,28.50
2023-06-11T03:19:34.516Z,30.30
2023-06-11T03:20:34.561Z,26.54
2023-06-11T03:21:34.670Z,29.14
2023-06-11T03:22:34.643Z,26.95
2023-06-11T03:23:34.813Z,31.06
2023-06-11T03:24:34.796Z,27.45
2023-06-11T03:25:34.789Z,26.68
2023-06-11T03:26:34.846Z,28.44
2023-06-11T03:27:34.901Z,27.17
2023-06-11T03:28:34.948Z,28.01
2023-06-11T03:29:35.025Z,27.71
2023-06-11T03:30:35.034Z,30.30
2023-06-11T03:31:35.142Z,28.35
2023-06-11T03:32:35.159Z,30.81
2023-06-11T03:33:35.188Z,30.30
2023-06-11T03:34:35.230Z,29.41
2023-06-11T03:35:35.273Z,26.61
2023-06-11T03:36:35.323Z,29.42
2023-06-11T03:37:35.398Z,28.64
2023-06-11T03:38:35.421Z,26.08
2023-06-11T03:39:35.504Z,28.37
2023-06-11T03:40:35.563Z,28.25
2023-06-11T03:41:35.574Z,27.58
2023-06-11T03:42:35.620Z,29.25
2023-06-11T03:43:35.664Z,28.85
2023-06-11T03:44:35.733Z,27.97
2023-06-11T03:45:35.765Z,27.72
2023-06-11T03:46:35.826Z,28.86
2023-06-11T03:47:35.957Z,28.10
2023-06-11T03:48:35.908Z,31.09
2023-06-11T03:49:35.989Z,27.60
2023-06-11T03:50:36.009Z,29.30
2023-06-11T03:51:36.044Z,27.54
2023-06-11T03:52:36.094Z,25.40
2023-06-11T03:53:36.159Z,26.71
2023-06-11T03:54:36.221Z,31.19
2023-06-11T03:55:36.245Z,28.51
2023-06-11T03:56:36.310Z,28.14
2023-06-11T03:57:36.336Z,29.33
2023-06-11T03:58:36.406Z,28.31
2023-06-11T03:59:36.457Z,28.85
2023-06-11T04:00:36.511Z,30.70
2023-06-11T04:01:36.549Z,29.77
2023-06-11T04:02:36.717Z,30.45
2023-06-11T04:03:36.851Z,30.15
2023-06-11T04:04:36.691Z,28.50
2023-06-11T04:05:36.703Z,28.51
2023-06-11T04:06:36.751Z,29.07
2023-06-11T04:07:36.803Z,27.63
2023-06-11T04:08:36.851Z,30.22
2023-06-11T04:09:36.896Z,27.55
2023-06-11T04:10:36.973Z,29.59
2023-06-11T04:11:36.996Z,28.23
2023-06-11T04:12:37.073Z,29.97
2023-06-11T04:13:37.102Z,29.84
2023-06-11T04:14:37.158Z,28.25
2023-06-11T04:15:37.195Z,29.52
2023-06-11T04:16:37.290Z,30.03
2023-06-11T04:17:37.310Z,28.06
2023-06-11T04:18:37.345Z,30.49
2023-06-11T04:19:37.400Z,28.33
2023-06-11T04:20:37.432Z,27.71
2023-06-11T04:21:37.479Z,28.53
2023-06-11T04:22:37.537Z,26.70
2023-06-11T04:23:37.603Z,31.26
2023-06-11T04:24:37.624Z,29.87
2023-06-11T04:25:37.695Z,30.29
2023-06-11T04:26:37.709Z,30.12
2023-06-11T04:27:37.779Z,30.73
2023-06-11T04:28:37.821Z,28.71
2023-06-11T04:29:37.846Z,28.24
2023-06-11T04:30:37.925Z,28.94
2023-06-11T04:31:37.973Z,29.41
2023-06-11T04:32:38.126Z,26.17
2023-06-11T04:33:38.038Z,30.74
2023-06-11T04:34:38.084Z,27.53
2023-06-11T04:35:38.139Z,29.22
2023-06-11T04:36:38.188Z,29.84
2023-06-11T04:37:38.245Z,31.04
2023-06-11T04:38:38.280Z,29.19
2023-06-11T04:39:38.333Z,29.45
2023-06-11T04:40:38.383Z,29.56
2023-06-11T04:41:38.425Z,26.81
2023-06-11T04:42:38.475Z,31.40
2023-06-11T04:43:38.528Z,28.30
2023-06-11T04:44:38.633Z,26.93
2023-06-11T04:45:38.619Z,29.56
2023-06-11T04:46:38.712Z,27.40
2023-06-11T04:47:38.775Z,30.21
2023-06-11T04:48:38.741Z,26.55
2023-06-11T04:49:38.812Z,27.48
2023-06-11T04:50:38.830Z,31.50
2023-06-11T04:51:38.873Z,28.47
2023-06-11T04:52:38.960Z,27.40
2023-06-11T04:53:38.961Z,31.93
2023-06-11T04:54:39.008Z,31.66
2023-06-11T04:55:39.062Z,33.14
2023-06-11T04:56:39.104Z,30.03
2023-06-11T04:57:39.179Z,29.39
2023-06-11T04:58:39.200Z,30.58
2023-06-11T04:59:39.249Z,31.62
2023-06-11T05:00:39.320Z,28.67
2023-06-11T05:01:39.395Z,29.27
2023-06-11T05:02:39.402Z,31.22
2023-06-11T05:03:39.432Z,26.92
2023-06-11T05:04:39.468Z,28.39
2023-06-11T05:05:39.614Z,28.72
2023-06-11T05:06:39.607Z,30.25
2023-06-11T05:07:39.602Z,27.86
2023-06-11T05:08:39.658Z,28.77
2023-06-11T05:09:39.719Z,26.75
2023-06-11T05:10:39.737Z,30.84
2023-06-11T05:11:39.775Z,29.09
2023-06-11T05:12:39.825Z,28.38
2023-06-11T05:13:39.890Z,29.74
2023-06-11T05:14:39.903Z,27.25
2023-06-11T05:15:39.948Z,29.09
2023-06-11T05:16:40.084Z,29.69
2023-06-11T05:17:40.066Z,28.82
2023-06-11T05:18:40.075Z,26.72
2023-06-11T05:19:40.184Z,29.57
2023-06-11T05:20:40.162Z,28.51
2023-06-11T05:21:40.202Z,27.47
2023-06-11T05:22:40.255Z,28.89
2023-06-11T05:23:40.328Z,27.81
2023-06-11T05:24:40.327Z,29.38
2023-06-11T05:25:40.371Z,30.78
2023-06-11T05:26:40.414Z,30.83
2023-06-11T05:27:40.456Z,28.47
2023-06-11T05:28:40.500Z,27.35
2023-06-11T05:29:42.134Z,30.76
2023-06-11T05:30:40.657Z,30.84
2023-06-11T05:31:40.601Z,30.83
2023-06-11T05:32:40.672Z,28.22
2023-06-11T05:33:40.599Z,29.74
2023-06-11T05:34:40.611Z,32.32
2023-06-11T05:35:40.597Z,27.81
2023-06-11T05:36:40.610Z,28.38
2023-06-11T05:37:40.656Z,29.12
2023-06-11T05:38:40.643Z,30.61
2023-06-11T05:39:40.624Z,29.17
2023-06-11T05:40:40.663Z,28.96
2023-06-11T05:41:40.636Z,29.36
2023-06-11T05:42:40.651Z,27.64
2023-06-11T05:43:40.676Z,31.47
2023-06-11T05:44:40.675Z,32.01
2023-06-11T05:45:40.771Z,28.79
2023-06-11T05:46:40.869Z,29.14
2023-06-11T05:47:40.836Z,28.48
2023-06-11T05:48:40.749Z,29.97
2023-06-11T05:49:40.752Z,29.03
2023-06-11T05:50:40.762Z,28.60
2023-06-11T05:51:40.772Z,29.94
2023-06-11T05:52:40.800Z,29.60
2023-06-11T05:53:40.799Z,28.47
2023-06-11T05:54:40.818Z,27.22
2023-06-11T05:55:40.834Z,28.66
2023-06-11T05:56:40.841Z,33.64
2023-06-11T05:57:40.849Z,28.41
2023-06-11T05:58:40.859Z,29.39
2023-06-11T05:59:40.875Z,28.99
2023-06-11T06:00:40.907Z,29.93
2023-06-11T06:01:40.944Z,30.99
2023-06-11T06:02:41.092Z,29.33
2023-06-11T06:03:41.311Z,31.07
2023-06-11T06:04:41.120Z,31.92
2023-06-11T06:05:41.156Z,28.10
2023-06-11T06:06:41.157Z,28.60
2023-06-11T06:07:41.192Z,30.13
2023-06-11T06:08:43.143Z,28.70
2023-06-11T06:09:41.257Z,28.94
2023-06-11T06:10:41.249Z,29.38
2023-06-11T06:11:41.253Z,29.75
2023-06-11T06:12:41.269Z,29.08
2023-06-11T06:13:41.295Z,30.29
2023-06-11T06:14:41.295Z,28.50
2023-06-11T06:15:41.304Z,29.84
2023-06-11T06:16:41.350Z,29.96
2023-06-11T06:17:41.383Z,30.85
2023-06-11T06:18:41.334Z,28.66
2023-06-11T06:19:41.343Z,28.17
2023-06-11T06:20:41.379Z,26.71
2023-06-11T06:21:41.377Z,30.69
2023-06-11T06:22:41.420Z,26.05
2023-06-11T06:23:41.459Z,29.62
2023-06-11T06:24:41.491Z,30.49
2023-06-11T06:25:41.530Z,29.10
2023-06-11T06:26:41.569Z,26.89
2023-06-11T06:27:41.597Z,28.68
2023-06-11T06:28:41.633Z,25.33
2023-06-11T06:29:41.671Z,25.00
2023-06-11T06:30:41.702Z,30.39
2023-06-11T06:31:41.788Z,28.74
2023-06-11T06:32:41.850Z,31.40
2023-06-11T06:33:41.810Z,29.98
2023-06-11T06:34:41.938Z,28.23
2023-06-11T06:35:41.881Z,31.38
2023-06-11T06:36:41.946Z,32.39
2023-06-11T06:37:41.968Z,31.20
2023-06-11T06:38:41.984Z,31.12
2023-06-11T06:39:42.018Z,28.56
2023-06-11T06:40:42.061Z,31.24
2023-06-11T06:41:42.098Z,26.59
2023-06-11T06:42:42.137Z,29.40
2023-06-11T06:43:42.177Z,30.77
2023-06-11T06:44:42.204Z,27.91
2023-06-11T06:45:42.246Z,31.50
2023-06-11T06:46:42.263Z,29.20
2023-06-11T06:47:42.365Z,28.18
2023-06-11T06:48:42.410Z,29.93
2023-06-11T06:49:42.365Z,29.14
2023-06-11T06:50:42.387Z,27.33
2023-06-11T06:51:42.425Z,28.71
2023-06-11T06:52:42.476Z,30.67
2023-06-11T06:53:42.504Z,30.44
2023-06-11T06:54:42.515Z,29.58
2023-06-11T06:55:42.542Z,29.39
2023-06-11T06:56:42.564Z,30.57
2023-06-11T06:57:42.596Z,28.24
2023-06-11T06:58:42.614Z,30.62
2023-06-11T06:59:42.642Z,29.84
2023-06-11T07:00:42.672Z,32.53
2023-06-11T07:01:42.893Z,32.66
2023-06-11T07:02:42.781Z,30.76
2023-06-11T07:03:42.750Z,29.38
2023-06-11T07:04:42.777Z,28.64
2023-06-11T07:05:42.895Z,30.62
2023-06-11T07:06:42.837Z,26.08
2023-06-11T07:07:43.838Z,29.65
2023-06-11T07:08:42.908Z,30.23
2023-06-11T07:09:42.906Z,30.98
2023-06-11T07:10:42.934Z,31.82
2023-06-11T07:11:42.969Z,31.66
2023-06-11T07:12:42.986Z,29.67
2023-06-11T07:13:43.015Z,31.06
2023-06-11T07:14:43.041Z,30.24
2023-06-11T07:15:43.111Z,29.60
2023-06-11T07:16:43.094Z,30.08
2023-06-11T07:17:43.162Z,29.90
2023-06-11T07:18:43.143Z,28.96
2023-06-11T07:19:43.200Z,30.40
2023-06-11T07:20:43.189Z,31.26
2023-06-11T07:21:43.241Z,29.14
2023-06-11T07:22:43.244Z,31.58
2023-06-11T07:23:43.302Z,31.18
2023-06-11T07:24:43.322Z,31.82
2023-06-11T07:25:43.330Z,29.90
2023-06-11T07:26:43.355Z,29.91
2023-06-11T07:27:43.397Z,32.12
2023-06-11T07:28:43.406Z,26.92
2023-06-11T07:29:43.435Z,28.81
2023-06-11T07:30:43.460Z,27.95
2023-06-11T07:31:43.620Z,30.42
2023-06-11T07:32:43.550Z,29.08
2023-06-11T07:33:43.581Z,29.62
2023-06-11T07:34:43.576Z,29.66
2023-06-11T07:35:43.606Z,31.77
2023-06-11T07:36:43.698Z,31.36
2023-06-11T07:37:43.657Z,29.85
2023-06-11T07:38:43.688Z,30.61
2023-06-11T07:39:43.707Z,32.88
2023-06-11T07:40:43.777Z,29.62
2023-06-11T07:41:43.757Z,29.44
2023-06-11T07:42:43.788Z,28.69
2023-06-11T07:43:43.863Z,30.21
2023-06-11T07:44:43.827Z,28.74
2023-06-11T07:45:43.852Z,26.69
2023-06-11T07:46:43.916Z,29.01
2023-06-11T07:47:43.933Z,30.03
2023-06-11T07:48:43.937Z,27.12
2023-06-11T07:49:43.964Z,28.57
2023-06-11T07:50:43.996Z,28.15
2023-06-11T07:51:44.018Z,29.18
2023-06-11T07:52:44.061Z,31.48
2023-06-11T07:53:44.094Z,28.91
2023-06-11T07:54:44.100Z,30.09
2023-06-11T07:55:44.151Z,29.85
2023-06-11T07:56:44.191Z,31.40
2023-06-11T07:57:44.250Z,32.19
2023-06-11T07:58:44.220Z,30.91
2023-06-11T07:59:44.246Z,30.46
2023-06-11T08:00:44.275Z,30.62
2023-06-11T08:01:44.346Z,29.53
2023-06-11T08:02:44.407Z,32.78
2023-06-11T08:03:44.364Z,28.66
2023-06-11T08:04:44.378Z,25.66
2023-06-11T08:05:44.448Z,30.20
2023-06-11T08:06:44.427Z,27.59
2023-06-11T08:07:44.447Z,31.33
2023-06-11T08:08:44.468Z,29.22
2023-06-11T08:09:44.498Z,28.52
2023-06-11T08:10:44.526Z,30.16
2023-06-11T08:11:44.537Z,30.03
2023-06-11T08:12:44.586Z,30.24
2023-06-11T08:13:44.584Z,30.69
2023-06-11T08:14:44.609Z,30.24
2023-06-11T08:15:44.636Z,27.80
2023-06-11T08:16:44.674Z,30.85
2023-06-11T08:17:44.711Z,28.56
2023-06-11T08:18:44.718Z,29.40
2023-06-11T08:19:44.734Z,29.57
2023-06-11T08:20:44.758Z,28.86
2023-06-11T08:21:44.779Z,26.94
2023-06-11T08:22:44.794Z,28.49
2023-06-11T08:23:44.849Z,29.02
2023-06-11T08:24:44.848Z,27.94
2023-06-11T08:25:44.869Z,28.07
2023-06-11T08:26:44.862Z,29.68
2023-06-11T08:27:44.874Z,29.31
2023-06-11T08:28:44.921Z,27.23
2023-06-11T08:29:44.920Z,28.53
2023-06-11T08:30:44.987Z,32.57
2023-06-11T08:31:45.035Z,32.26
2023-06-11T08:32:45.009Z,30.01
2023-06-11T08:33:45.006Z,28.54
2023-06-11T08:34:45.032Z,29.05
2023-06-11T08:35:45.033Z,32.16
2023-06-11T08:36:45.046Z,30.13
2023-06-11T08:37:45.084Z,27.56
2023-06-11T08:38:45.083Z,31.56
2023-06-11T08:39:45.112Z,28.88
2023-06-11T08:40:45.139Z,29.88
2023-06-11T08:41:45.140Z,25.82
2023-06-11T08:42:45.151Z,27.08
2023-06-11T08:43:45.165Z,28.08
2023-06-11T08:44:45.204Z,29.38
2023-06-11T08:45:45.192Z,27.73
2023-06-11T08:46:45.441Z,27.62
2023-06-11T08:47:45.299Z,25.00
2023-06-11T08:48:45.228Z,29.23
2023-06-11T08:49:45.241Z,30.32
2023-06-11T08:50:45.255Z,27.30
2023-06-11T08:51:45.267Z,27.19
2023-06-11T08:52:45.307Z,29.44
2023-06-11T08:53:45.333Z,28.79
2023-06-11T08:54:45.329Z,29.68
2023-06-11T08:55:45.351Z,28.89
2023-06-11T08:56:45.354Z,28.35
2023-06-11T08:57:45.381Z,29.76
2023-06-11T08:58:45.375Z,27.90
2023-06-11T08:59:45.401Z,26.26
2023-06-11T09:00:48.572Z,30.66
2023-06-11T09:01:45.567Z,30.80
2023-06-11T09:02:45.480Z,30.66
2023-06-11T09:03:45.437Z,28.87
2023-06-11T09:04:45.414Z,30.09
2023-06-11T09:05:45.446Z,30.72
2023-06-11T09:06:45.420Z,27.98
2023-06-11T09:07:45.420Z,27.39
2023-06-11T09:08:45.425Z,26.08
2023-06-11T09:09:45.399Z,29.23
2023-06-11T09:10:45.410Z,29.30
2023-06-11T09:11:45.398Z,26.04
2023-06-11T09:12:45.400Z,26.71
2023-06-11T09:13:45.396Z,25.68
2023-06-11T09:14:45.407Z,29.42
2023-06-11T09:15:45.408Z,28.95
2023-06-11T09:16:45.610Z,27.54
2023-06-11T09:17:45.449Z,28.97
2023-06-11T09:18:45.418Z,29.22
2023-06-11T09:19:45.420Z,29.22
2023-06-11T09:20:45.428Z,30.38
2023-06-11T09:21:45.466Z,29.51
2023-06-11T09:22:45.426Z,26.77
2023-06-11T09:23:45.447Z,26.98
2023-06-11T09:24:45.456Z,30.10
2023-06-11T09:25:45.449Z,31.41
2023-06-11T09:26:45.447Z,27.15
2023-06-11T09:27:45.457Z,32.36
2023-06-11T09:28:46.739Z,31.80
2023-06-11T09:29:45.481Z,31.83
2023-06-11T09:30:45.517Z,32.05
2023-06-11T09:31:45.590Z,27.81
2023-06-11T09:32:45.707Z,29.04
2023-06-11T09:33:45.474Z,30.70
2023-06-11T09:34:45.455Z,26.73
2023-06-11T09:35:45.484Z,25.00
2023-06-11T09:36:45.465Z,27.93
2023-06-11T09:37:45.451Z,29.31
2023-06-11T09:38:45.463Z,29.30
2023-06-11T09:39:45.449Z,28.78
2023-06-11T09:40:45.459Z,26.07
2023-06-11T09:41:45.445Z,29.60
2023-06-11T09:42:45.438Z,25.23
2023-06-11T09:43:45.430Z,28.59
2023-06-11T09:44:45.434Z,27.20
2023-06-11T09:45:45.510Z,29.91
2023-06-11T09:46:45.420Z,27.00
2023-06-11T09:47:45.484Z,27.25
2023-06-11T09:48:45.451Z,27.93
2023-06-11T09:49:45.429Z,25.33
2023-06-11T09:50:45.428Z,27.96
2023-06-11T09:51:45.450Z,28.31
2023-06-11T09:52:45.430Z,27.24
2023-06-11T09:53:45.430Z,27.75
2023-06-11T09:54:45.424Z,30.64
2023-06-11T09:55:57.116Z,29.76
2023-06-11T09:56:45.425Z,30.16
2023-06-11T09:57:45.454Z,30.79
2023-06-11T09:58:45.423Z,31.88
2023-06-11T09:59:45.419Z,31.98
2023-06-11T10:00:45.564Z,31.21
2023-06-11T10:01:45.510Z,30.63
2023-06-11T10:02:45.474Z,27.74
2023-06-11T10:03:45.479Z,28.19
2023-06-11T10:04:45.440Z,29.58
2023-06-11T10:05:45.458Z,30.11
2023-06-11T10:06:45.394Z,29.63
2023-06-11T10:07:45.398Z,28.23
2023-06-11T10:08:45.390Z,27.83
2023-06-11T10:09:45.386Z,28.46
2023-06-11T10:10:45.431Z,28.10
2023-06-11T10:11:45.392Z,29.08
2023-06-11T10:12:45.415Z,31.21
2023-06-11T10:13:45.407Z,26.94
2023-06-11T10:14:45.388Z,28.53
2023-06-11T10:15:45.429Z,29.20
2023-06-11T10:16:45.386Z,30.88
2023-06-11T10:17:45.418Z,28.25
2023-06-11T10:18:45.384Z,29.36
2023-06-11T10:19:45.391Z,28.41
2023-06-11T10:20:45.416Z,30.20
2023-06-11T10:21:45.429Z,29.53
2023-06-11T10:22:45.386Z,30.62
2023-06-11T10:23:45.412Z,32.29
2023-06-11T10:24:45.388Z,29.54
2023-06-11T10:25:45.391Z,30.78
2023-06-11T10:26:45.430Z,30.29
2023-06-11T10:27:45.396Z,30.21
2023-06-11T10:28:45.391Z,33.59
2023-06-11T10:29:45.385Z,31.43
2023-06-11T10:30:45.380Z,29.99
2023-06-11T10:31:45.376Z,28.45
2023-06-11T10:32:45.395Z,31.36
2023-06-11T10:33:45.400Z,29.31
2023-06-11T10:34:45.464Z,32.11
2023-06-11T10:35:45.368Z,32.58
2023-06-11T10:36:45.382Z,30.63
2023-06-11T10:37:45.347Z,30.09
2023-06-11T10:38:45.342Z,30.56
2023-06-11T10:39:45.425Z,32.79
2023-06-11T10:40:45.346Z,29.24
2023-06-11T10:41:45.343Z,30.29
2023-06-11T10:42:45.347Z,31.50
2023-06-11T10:43:45.345Z,31.91
2023-06-11T10:44:45.340Z,31.32
2023-06-11T10:45:47.769Z,32.17
2023-06-11T10:46:45.379Z,32.52
2023-06-11T10:47:45.393Z,32.98
2023-06-11T10:48:45.346Z,33.08
2023-06-11T10:49:45.351Z,32.86
2023-06-11T10:50:45.354Z,30.27
2023-06-11T10:51:45.369Z,34.01
2023-06-11T10:52:45.390Z,32.44
2023-06-11T10:53:45.358Z,33.42
2023-06-11T10:54:45.386Z,34.71
2023-06-11T10:55:45.462Z,33.17
2023-06-11T10:56:45.413Z,35.61
2023-06-11T10:57:45.469Z,33.35
2023-06-11T10:58:45.506Z,34.13
2023-06-11T10:59:45.553Z,33.06
2023-06-11T11:00:45.601Z,31.97
2023-06-11T11:01:45.690Z,33.06
2023-06-11T11:02:45.717Z,32.43
2023-06-11T11:03:45.808Z,33.21
2023-06-11T11:04:45.735Z,34.62
2023-06-11T11:05:45.779Z,31.68
2023-06-11T11:06:45.851Z,31.30
2023-06-11T11:07:46.058Z,32.03
2023-06-11T11:08:45.909Z,32.93
2023-06-11T11:09:45.894Z,33.39
2023-06-11T11:10:46.006Z,33.95
2023-06-11T11:11:45.946Z,32.18
2023-06-11T11:12:45.994Z,33.74
2023-06-11T11:13:46.035Z,31.67
2023-06-11T11:14:46.060Z,33.28
2023-06-11T11:15:46.130Z,34.40
2023-06-11T11:16:46.140Z,33.79
2023-06-11T11:17:46.229Z,34.07
2023-06-11T11:18:46.219Z,33.19
2023-06-11T11:19:46.243Z,35.08
2023-06-11T11:20:46.264Z,31.35
2023-06-11T11:21:46.270Z,35.37
2023-06-11T11:22:46.279Z,31.49
2023-06-11T11:23:46.288Z,34.70
2023-06-11T11:24:46.322Z,32.10
2023-06-11T11:25:46.324Z,30.52
2023-06-11T11:26:46.341Z,32.52
2023-06-11T11:27:46.371Z,32.87
2023-06-11T11:28:46.452Z,33.63
2023-06-11T11:29:46.454Z,32.84
2023-06-11T11:30:46.494Z,33.61
2023-06-11T11:31:46.585Z,33.10
2023-06-11T11:32:46.629Z,31.90
2023-06-11T11:33:46.621Z,35.95
2023-06-11T11:34:46.656Z,34.09
2023-06-11T11:35:46.697Z,32.04
2023-06-11T11:36:46.776Z,32.77
2023-06-11T11:37:46.738Z,34.72
2023-06-11T11:38:46.755Z,30.99
2023-06-11T11:39:46.774Z,29.99
2023-06-11T11:40:46.807Z,31.80
2023-06-11T11:41:46.792Z,34.73
2023-06-11T11:42:46.788Z,29.78
2023-06-11T11:43:46.814Z,33.47
2023-06-11T11:44:46.860Z,32.23
2023-06-11T11:45:46.912Z,30.98
2023-06-11T11:46:47.119Z,34.01
2023-06-11T11:47:47.028Z,35.39
2023-06-11T11:48:46.999Z,34.57
2023-06-11T11:49:47.013Z,32.09
2023-06-11T11:50:47.061Z,33.04
2023-06-11T11:51:47.162Z,29.81
2023-06-11T11:52:47.171Z,29.08
2023-06-11T11:53:47.208Z,32.69
2023-06-11T11:54:47.255Z,31.94
2023-06-11T11:56:01.014Z,31.64
2023-06-11T11:56:47.338Z,31.97
2023-06-11T11:57:47.313Z,33.04
2023-06-11T11:58:47.345Z,34.84
2023-06-11T11:59:47.342Z,34.86
2023-06-11T12:00:47.342Z,36.77
2023-06-11T12:01:47.330Z,35.96
2023-06-11T12:02:47.460Z,34.86
2023-06-11T12:03:47.449Z,35.63
2023-06-11T12:04:48.058Z,35.29
2023-06-11T12:05:47.633Z,37.17
2023-06-11T12:06:47.630Z,38.16
2023-06-11T12:07:47.653Z,33.94
2023-06-11T12:08:47.679Z,36.17
2023-06-11T12:09:47.681Z,34.52
2023-06-11T12:10:47.706Z,33.86
2023-06-11T12:12:03.983Z,35.87
2023-06-11T12:12:47.720Z,36.14
2023-06-11T12:13:47.704Z,37.04
2023-06-11T12:14:47.698Z,37.39
2023-06-11T12:15:47.703Z,37.48
2023-06-11T12:16:47.766Z,38.91
2023-06-11T12:17:47.748Z,36.59
2023-06-11T12:18:47.727Z,37.88
2023-06-11T12:19:47.718Z,36.12
2023-06-11T12:20:47.730Z,36.83
2023-06-11T12:21:49.974Z,34.82
2023-06-11T12:22:47.730Z,35.10
2023-06-11T12:23:47.737Z,35.47
2023-06-11T12:24:47.773Z,37.61
2023-06-11T12:25:47.716Z,36.27
2023-06-11T12:26:47.771Z,35.66
2023-06-11T12:27:47.719Z,36.74
2023-06-11T12:28:47.754Z,38.85
2023-06-11T12:29:47.728Z,37.49
2023-06-11T12:30:47.755Z,36.27
2023-06-11T12:31:47.786Z,35.99
2023-06-11T12:32:47.754Z,37.78
2023-06-11T12:33:47.744Z,36.44
2023-06-11T12:34:47.754Z,37.27
2023-06-11T12:35:47.769Z,36.14
2023-06-11T12:36:47.795Z,36.37
2023-06-11T12:37:47.768Z,36.52
2023-06-11T12:38:47.769Z,35.89
2023-06-11T12:39:47.781Z,34.91
2023-06-11T12:40:47.780Z,35.57
2023-06-11T12:41:47.805Z,36.22
2023-06-11T12:42:47.795Z,36.06
2023-06-11T12:43:47.797Z,36.39
2023-06-11T12:44:47.832Z,35.97
2023-06-11T12:45:47.858Z,37.46
2023-06-11T12:46:47.842Z,34.95
2023-06-11T12:47:47.863Z,39.99
2023-06-11T12:48:47.839Z,38.59
2023-06-11T12:49:47.851Z,37.38
2023-06-11T12:50:47.849Z,36.55
2023-06-11T12:51:47.907Z,37.36
2023-06-11T12:52:47.862Z,35.57